Pagina principale
METAR-TAF:

METAR-TAF

Aeroporti :

Pápa, Ungheria

latitudine: 47-12N, longitudine: 017-30E, altezza: 145 m

Osservazione

Il bollettino è stato emesso 41 minuti fa, alle 01:45 UTC
Vento 4 kt da sud
Temperature 5°C
Umidità 75%
Pressione 1016 hPa
Visibilità 10 km o più
nessuna nube inferiore a 1500 m e nessun cumulonembo

METAR: LHPA 220145Z 18004KT CAVOK 05/01 Q1016 NOSIG RMK BLU

Ora: 04:26 (02:26 UTC)

Previsione

Il bollettino è stato emesso 9 ore e 11 minuti fa, alle 17:15 UTC
Previsione valida dal 21 alle 18 UTC al 22 alle 18 UTC
Vento 3 kt da direzioni variabili
Visibilità 10 km o più
nessuna nube inferiore a 1500 m e nessun cumulonembo
Evoluzione graduale
dal 22 alle 09 UTC al 22 alle 12 UTC
Vento 6 kt da sud/sud-est
Evoluzione graduale
dal 22 alle 14 UTC al 22 alle 17 UTC
Vento 16 kt da est con raffiche fino a 28 kt

TAF: LHPA 211715Z 2118/2218 VRB03KT CAVOK BECMG 2209/2212 16006KT BECMG 2214/2217 09016G28KT

Osservazioni e previsioni meteorologiche di più di 4000 aeroporti (messaggi METAR e TAF).

Le stazioni disponibili sono rappresentate dai dischi gialli e rossi sulla carta.

Puntare il mouse per vedere il nome della stazione.

Clicca sopra per visualizzare le osservazioni e previsioni meteorologiche.

Per cambiare la mappa : fare clic sui pulsanti verdi con una croce nera per ingrandire, il pulsante verde con un trattino per diminuire, o sulla freccia verde per le mappe adiacenti.


METAR-TAF: